Time;durP1;ratioP1;P1;durP2;ratioP2;P2;SDS_P1;SDS_P2;PMS_P1;PMS_P2;Temp;Humidity;BMP_temperature;BMP_pressure;BME280_temperature;BME280_humidity;BME280_pressure;Samples;Min_cycle;Max_cycle;Signal;HPM_P1;HPM_P2
2021/04/02 00:02:18;;;;;;;3.22;2.30;;;;;;;7.82;61.44;100093.03;3604823;39;20079;-71
2021/04/02 00:05:03;;;;;;;5.82;2.72;;;;;;;7.77;61.59;100102.75;3604148;39;20082;-71
2021/04/02 00:07:48;;;;;;;3.95;2.55;;;;;;;7.74;61.55;100105.44;3603995;39;20452;-72
2021/04/02 00:10:40;;;;;;;3.03;2.55;;;;;;;7.72;61.58;100105.50;3602542;39;20183;-72
2021/04/02 00:13:26;;;;;;;;;;;;;;;7.87;60.77;100106.78;3605191;39;20083;-72
2021/04/02 00:16:14;;;;;;;3.65;2.58;;;;;;;7.74;60.97;100113.28;3602808;39;20311;-71
2021/04/02 00:18:58;;;;;;;3.17;2.85;;;;;;;7.77;60.88;100107.97;3599923;39;20091;-72
2021/04/02 00:21:44;;;;;;;3.35;2.60;;;;;;;7.82;61.06;100106.06;3597690;39;20332;-73
2021/04/02 00:24:28;;;;;;;3.78;2.47;;;;;;;7.82;61.15;100101.69;3596861;39;20074;-72
2021/04/02 00:27:13;;;;;;;2.92;2.30;;;;;;;7.80;61.13;100113.94;3599591;39;20177;-71
2021/04/02 00:29:59;;;;;;;3.08;2.65;;;;;;;7.76;61.27;100107.13;3599928;39;20181;-71
2021/04/02 00:32:44;;;;;;;2.55;2.35;;;;;;;7.72;61.08;100105.50;3603665;39;20148;-71
2021/04/02 00:35:29;;;;;;;2.92;2.40;;;;;;;7.66;61.16;100110.88;3601674;39;20409;-71
2021/04/02 00:38:14;;;;;;;3.83;2.50;;;;;;;7.64;60.78;100108.31;3604258;39;20078;-72
2021/04/02 00:41:01;;;;;;;3.53;2.60;;;;;;;7.56;60.97;100102.47;3601553;39;20395;-70
2021/04/02 00:43:47;;;;;;;2.95;2.40;;;;;;;7.54;60.93;100111.25;3600318;39;20078;-71
2021/04/02 00:46:33;;;;;;;2.15;1.92;;;;;;;7.48;60.91;100112.25;3600095;39;20176;-71
2021/04/02 00:49:18;;;;;;;3.30;2.60;;;;;;;7.42;61.05;100115.03;3600623;39;20161;-71
2021/04/02 00:52:03;;;;;;;3.95;2.42;;;;;;;7.40;61.02;100118.56;3598951;39;20074;-71
2021/04/02 00:54:47;;;;;;;3.17;2.10;;;;;;;7.36;60.82;100119.56;3600228;39;20145;-71
2021/04/02 00:57:32;;;;;;;3.88;2.40;;;;;;;7.25;60.95;100114.63;3600105;39;20078;-70
2021/04/02 01:00:18;;;;;;;2.50;2.20;;;;;;;7.13;60.95;100114.97;3599667;39;20079;-71
2021/04/02 01:03:05;;;;;;;2.55;2.35;;;;;;;6.98;61.28;100116.22;3601867;39;20419;-77
2021/04/02 01:05:52;;;;;;;3.03;2.42;;;;;;;6.93;61.29;100113.72;3603205;39;20082;-76
2021/04/02 01:08:38;;;;;;;2.30;2.10;;;;;;;6.95;61.11;100122.38;3603398;39;20070;-78
2021/04/02 01:11:25;;;;;;;3.03;2.50;;;;;;;7.00;60.91;100122.25;3601935;39;20072;-78
2021/04/02 01:14:10;;;;;;;3.15;2.35;;;;;;;7.06;60.73;100129.03;3599773;39;20494;-76
2021/04/02 01:16:55;;;;;;;4.18;2.40;;;;;;;7.09;60.57;100136.81;3602637;39;20078;-78
2021/04/02 01:19:45;;;;;;;2.72;2.30;;;;;;;7.06;60.68;100132.50;3603598;39;20430;-77
2021/04/02 01:22:31;;;;;;;3.88;2.35;;;;;;;7.08;60.75;100129.84;3600507;39;20067;-78
2021/04/02 01:25:26;;;;;;;3.75;2.47;;;;;;;7.03;60.85;100130.84;3601151;39;20537;-78
2021/04/02 01:28:23;;;;;;;3.38;2.60;;;;;;;7.04;60.81;100132.53;3600014;39;20078;-78
2021/04/02 01:31:11;;;;;;;2.45;2.22;;;;;;;7.11;60.59;100141.06;3603165;39;20391;-77
2021/04/02 01:33:57;;;;;;;4.38;2.55;;;;;;;7.09;60.56;100140.25;3599699;39;20079;-76
2021/04/02 01:36:45;;;;;;;2.80;2.33;;;;;;;7.08;60.88;100148.97;3603350;39;20193;-78
2021/04/02 01:39:33;;;;;;;4.07;2.83;;;;;;;7.01;60.84;100144.81;3602843;39;20127;-79
2021/04/02 01:42:21;;;;;;;2.85;2.05;;;;;;;6.96;60.60;100144.94;3598306;39;20091;-76
2021/04/02 01:45:10;;;;;;;3.28;2.50;;;;;;;6.92;60.62;100142.44;3600521;39;20197;-77
2021/04/02 01:48:00;;;;;;;2.42;2.22;;;;;;;6.87;60.66;100150.38;3599794;39;20075;-78
2021/04/02 01:50:48;;;;;;;2.90;2.05;;;;;;;6.81;60.52;100157.47;3602990;39;20099;-78
2021/04/02 01:53:44;;;;;;;3.00;2.13;;;;;;;6.73;60.60;100162.88;3599624;39;20193;-76
2021/04/02 01:56:30;;;;;;;2.80;2.08;;;;;;;6.74;60.31;100177.63;3603128;39;20288;-78
2021/04/02 01:59:16;;;;;;;3.33;2.08;;;;;;;6.69;60.07;100179.47;3601825;39;20071;-78
2021/04/02 02:02:03;;;;;;;2.88;1.95;;;;;;;6.63;60.12;100188.28;3606330;39;20074;-78
2021/04/02 02:04:50;;;;;;;2.30;2.10;;;;;;;6.43;60.18;100191.31;3598990;39;20110;-77
2021/04/02 02:07:36;;;;;;;5.40;2.25;;;;;;;6.14;61.09;100190.25;3603531;39;20076;-78
2021/04/02 02:10:21;;;;;;;3.97;2.33;;;;;;;5.92;61.51;100201.13;3601035;39;20107;-77
2021/04/02 02:13:07;;;;;;;2.13;1.90;;;;;;;5.75;61.82;100203.16;3597360;39;20063;-77
2021/04/02 02:15:54;;;;;;;3.28;2.65;;;;;;;5.56;62.02;100207.84;3604434;39;20114;-78
2021/04/02 02:18:40;;;;;;;3.88;2.20;;;;;;;5.41;62.03;100211.59;3598303;39;20321;-78
2021/04/02 02:21:27;;;;;;;4.05;2.88;;;;;;;5.27;62.35;100212.72;3599071;39;20416;-78
2021/04/02 02:24:12;;;;;;;4.38;2.83;;;;;;;5.14;62.22;100212.91;3604157;39;20125;-77
2021/04/02 02:26:57;;;;;;;4.15;2.53;;;;;;;5.03;62.41;100230.44;3603100;39;20423;-77
2021/04/02 02:29:42;;;;;;;6.43;3.17;;;;;;;4.93;62.66;100228.84;3597812;39;20083;-77
2021/04/02 02:32:28;;;;;;;6.07;3.10;;;;;;;4.84;62.77;100239.41;3604253;39;20086;-77
2021/04/02 02:35:13;;;;;;;5.57;2.90;;;;;;;4.73;62.84;100236.94;3602564;39;20592;-78
2021/04/02 02:38:01;;;;;;;4.97;3.00;;;;;;;4.65;62.95;100245.75;3600319;39;20078;-77
2021/04/02 02:40:46;;;;;;;5.43;2.90;;;;;;;4.57;62.84;100251.03;3602393;39;20171;-77
2021/04/02 02:43:32;;;;;;;5.00;2.60;;;;;;;4.47;62.80;100245.09;3601512;39;20067;-76
2021/04/02 02:46:16;;;;;;;5.10;3.00;;;;;;;4.41;62.86;100245.19;3601922;39;20405;-77
2021/04/02 02:49:04;;;;;;;6.40;2.85;;;;;;;4.33;63.26;100248.75;3603261;39;20087;-77
2021/04/02 02:51:51;;;;;;;4.68;2.70;;;;;;;4.31;63.18;100243.59;3601393;39;20195;-77
2021/04/02 02:54:38;;;;;;;6.43;2.88;;;;;;;4.36;62.97;100246.97;3598957;39;20078;-78
2021/04/02 02:57:25;;;;;;;5.30;3.10;;;;;;;4.30;63.10;100241.88;3601781;39;20164;-78
2021/04/02 03:00:12;;;;;;;4.63;3.00;;;;;;;4.25;63.06;100249.72;3600502;39;20078;-78
2021/04/02 03:03:00;;;;;;;4.32;3.28;;;;;;;4.39;63.06;100256.50;3600035;39;20072;-78
2021/04/02 03:05:48;;;;;;;4.47;3.38;;;;;;;4.55;62.57;100251.03;3602788;39;20079;-78
2021/04/02 03:08:41;;;;;;;4.30;3.00;;;;;;;4.68;62.27;100243.09;3610632;39;20200;-77
2021/04/02 03:11:28;;;;;;;4.07;2.97;;;;;;;4.76;62.15;100251.63;3604910;39;20173;-77
2021/04/02 03:14:16;;;;;;;6.50;3.03;;;;;;;4.75;62.19;100249.91;3600805;39;20148;-77
2021/04/02 03:17:03;;;;;;;3.42;2.92;;;;;;;4.91;61.72;100248.81;3603443;39;20074;-77
2021/04/02 03:19:50;;;;;;;4.10;3.00;;;;;;;4.99;61.86;100246.94;3601849;39;20475;-77
2021/04/02 03:22:36;;;;;;;6.03;2.92;;;;;;;5.10;61.34;100245.03;3598565;39;20091;-78
2021/04/02 03:25:25;;;;;;;3.92;3.40;;;;;;;5.17;61.35;100238.84;3599494;39;20165;-78
2021/04/02 03:28:12;;;;;;;4.03;3.63;;;;;;;5.23;61.44;100243.09;3600282;39;20313;-77
2021/04/02 03:30:57;;;;;;;3.13;2.75;;;;;;;5.27;61.25;100234.38;3599596;39;20082;-77
2021/04/02 03:33:47;;;;;;;5.32;3.00;;;;;;;5.37;61.11;100248.91;3601118;39;20193;-76
2021/04/02 03:36:34;;;;;;;4.95;3.40;;;;;;;5.44;60.84;100247.94;3601565;39;20432;-77
2021/04/02 03:39:23;;;;;;;4.50;3.08;;;;;;;5.44;60.93;100253.13;3602794;39;20079;-77
2021/04/02 03:42:11;;;;;;;4.53;3.20;;;;;;;5.42;61.02;100249.72;3601050;39;20083;-77
2021/04/02 03:45:00;;;;;;;3.53;2.95;;;;;;;5.44;61.02;100263.53;3601371;39;20192;-77
2021/04/02 03:47:48;;;;;;;3.78;3.22;;;;;;;5.45;61.01;100259.19;3598680;39;20075;-78
2021/04/02 03:50:36;;;;;;;5.18;3.20;;;;;;;5.42;61.04;100252.31;3602129;39;20075;-77
2021/04/02 03:53:24;;;;;;;4.15;2.92;;;;;;;5.44;60.95;100262.69;3602208;39;20241;-77
2021/04/02 03:56:12;;;;;;;5.32;3.38;;;;;;;5.47;60.86;100258.28;3601482;39;20079;-78
2021/04/02 03:58:58;;;;;;;4.78;3.30;;;;;;;5.37;60.97;100255.84;3604381;39;20075;-78
2021/04/02 04:01:49;;;;;;;4.63;3.20;;;;;;;5.35;61.26;100240.28;3602094;39;20091;-78
2021/04/02 04:04:35;;;;;;;6.95;3.33;;;;;;;5.37;61.10;100229.84;3603372;39;20063;-77
2021/04/02 04:07:22;;;;;;;4.65;3.38;;;;;;;5.21;61.35;100226.69;3605166;39;20352;-77
2021/04/02 04:10:09;;;;;;;5.45;3.70;;;;;;;5.09;61.63;100227.72;3601840;39;20071;-78
2021/04/02 04:12:56;;;;;;;8.23;3.83;;;;;;;4.98;61.94;100227.03;3602136;39;20305;-77
2021/04/02 04:15:42;;;;;;;5.95;4.00;;;;;;;4.88;61.91;100225.47;3600595;39;20098;-76
2021/04/02 04:18:29;;;;;;;6.68;3.97;;;;;;;4.85;62.19;100225.53;3603430;39;20416;-76
2021/04/02 04:21:16;;;;;;;6.35;3.90;;;;;;;4.99;61.71;100233.09;3599953;39;20067;-77
2021/04/02 04:24:02;;;;;;;6.80;3.70;;;;;;;5.10;61.43;100231.19;3596801;39;20066;-76
2021/04/02 04:26:49;;;;;;;5.25;3.72;;;;;;;5.17;61.25;100228.44;3599463;39;20071;-77
2021/04/02 04:29:38;;;;;;;5.70;3.67;;;;;;;5.15;61.45;100239.75;3597892;39;20409;-77
2021/04/02 04:32:26;;;;;;;6.28;3.90;;;;;;;5.08;61.39;100231.22;3602342;39;20150;-77
2021/04/02 04:35:15;;;;;;;5.30;3.95;;;;;;;5.08;61.71;100232.94;3601655;39;20147;-77
2021/04/02 04:38:03;;;;;;;6.07;3.67;;;;;;;5.06;61.65;100240.78;3603035;39;20110;-77
2021/04/02 04:40:51;;;;;;;6.68;4.55;;;;;;;5.06;61.57;100240.78;3600754;39;20324;-76
2021/04/02 04:43:37;;;;;;;5.03;4.10;;;;;;;5.05;61.59;100244.25;3600741;39;20173;-77
2021/04/02 04:46:23;;;;;;;5.82;4.18;;;;;;;5.04;61.57;100249.47;3599370;39;20071;-76
2021/04/02 04:49:08;;;;;;;6.05;4.00;;;;;;;5.25;61.38;100236.13;3596141;39;20071;-76
2021/04/02 04:51:55;;;;;;;5.28;3.78;;;;;;;5.57;60.59;100243.34;3600627;39;20087;-77
2021/04/02 04:54:42;;;;;;;7.45;4.13;;;;;;;5.78;60.28;100237.75;3599178;39;20098;-77
2021/04/02 04:57:33;;;;;;;6.30;3.97;;;;;;;6.03;59.58;100239.91;3602369;39;20078;-77
2021/04/02 05:00:19;;;;;;;6.13;4.07;;;;;;;6.26;59.13;100245.53;3601697;39;20079;-77
2021/04/02 05:03:05;;;;;;;5.05;4.03;;;;;;;6.47;58.79;100251.19;3601733;39;20079;-77
2021/04/02 05:05:54;;;;;;;6.03;4.20;;;;;;;6.48;59.02;100245.09;3604410;39;20328;-77
2021/04/02 05:08:41;;;;;;;6.50;4.05;;;;;;;6.37;59.21;100259.16;3600268;39;20678;-77
2021/04/02 05:11:28;;;;;;;5.93;4.40;;;;;;;6.39;59.22;100269.56;3600653;39;20070;-76
2021/04/02 05:14:14;;;;;;;7.40;3.80;;;;;;;6.55;58.97;100264.88;3600961;39;20440;-71
2021/04/02 05:17:00;;;;;;;8.88;4.25;;;;;;;6.66;58.69;100275.91;3603313;39;20082;-71
2021/04/02 05:19:45;;;;;;;5.68;4.47;;;;;;;6.76;58.43;100277.44;3600639;39;20269;-71
2021/04/02 05:22:30;;;;;;;7.63;5.55;;;;;;;6.99;58.20;100282.97;3600671;39;20118;-70
2021/04/02 05:25:16;;;;;;;10.05;5.88;;;;;;;7.23;57.55;100289.38;3599443;39;20465;-71
2021/04/02 05:28:01;;;;;;;10.45;6.80;;;;;;;7.20;57.49;100288.59;3601104;39;20074;-76
2021/04/02 05:30:46;;;;;;;8.98;6.40;;;;;;;7.19;57.67;100292.09;3599797;39;20174;-76
2021/04/02 05:33:31;;;;;;;10.57;6.18;;;;;;;7.19;57.48;100292.94;3603073;39;20143;-76
2021/04/02 05:36:16;;;;;;;8.70;6.15;;;;;;;7.26;57.50;100298.84;3603985;39;20172;-78
2021/04/02 05:39:01;;;;;;;7.70;5.50;;;;;;;7.31;57.21;100295.28;3552255;32;20106;-76
2021/04/02 05:41:53;;;;;;;10.45;6.72;;;;;;;7.29;57.12;100293.59;3587090;40;20178;-77
2021/04/02 05:44:39;;;;;;;14.98;9.57;;;;;;;7.33;57.04;100290.88;3589698;39;20076;-77
2021/04/02 05:47:26;;;;;;;11.80;8.00;;;;;;;7.55;56.71;100296.41;3593295;39;20166;-77
2021/04/02 05:50:12;;;;;;;12.07;8.13;;;;;;;7.78;56.31;100292.34;3586384;39;20419;-76
2021/04/02 05:53:02;;;;;;;12.90;8.32;;;;;;;7.94;55.84;100278.00;3590471;40;20107;-78
2021/04/02 05:55:49;;;;;;;17.40;9.63;;;;;;;8.16;55.28;100278.28;3594187;39;20087;-70
2021/04/02 05:58:35;;;;;;;13.85;8.55;;;;;;;8.31;55.07;100282.19;3593088;39;20151;-70
2021/04/02 06:01:21;;;;;;;13.30;7.32;;;;;;;8.21;55.08;100279.84;3592016;39;20180;-71
2021/04/02 06:04:06;;;;;;;10.35;6.63;;;;;;;8.34;54.76;100287.38;3593341;39;20075;-72
2021/04/02 06:06:51;;;;;;;9.30;7.00;;;;;;;8.43;54.50;100287.09;3593406;40;20196;-71
2021/04/02 06:09:35;;;;;;;8.35;5.93;;;;;;;8.70;53.96;100291.50;3590477;39;20424;-71
2021/04/02 06:12:24;;;;;;;11.38;6.75;;;;;;;9.28;52.68;100284.47;3593187;39;20231;-74
2021/04/02 06:15:10;;;;;;;9.60;7.10;;;;;;;9.55;52.28;100282.69;3592514;39;20106;-73
2021/04/02 06:18:04;;;;;;;10.05;5.82;;;;;;;9.81;51.49;100281.81;3592424;40;20074;-81
2021/04/02 06:20:50;;;;;;;8.80;6.30;;;;;;;9.97;51.15;100290.84;3591754;39;20180;-79
2021/04/02 06:23:37;;;;;;;8.93;6.18;;;;;;;9.88;51.37;100293.78;3586633;39;20103;-76
2021/04/02 06:26:22;;;;;;;8.23;5.18;;;;;;;9.71;51.54;100289.13;3592835;39;20185;-77
2021/04/02 06:29:08;;;;;;;7.03;5.20;;;;;;;9.63;51.80;100285.94;3593285;39;20075;-75
2021/04/02 06:31:53;;;;;;;8.40;5.03;;;;;;;10.75;49.35;100284.53;3593285;39;20408;-74
2021/04/02 06:34:46;;;;;;;8.40;5.70;;;;;;;10.98;48.87;100276.63;3589077;39;20197;-78
2021/04/02 06:37:33;;;;;;;5.55;4.93;;;;;;;10.72;49.28;100290.75;3589347;40;20537;-76
2021/04/02 06:40:19;;;;;;;8.02;4.90;;;;;;;11.12;48.56;100283.94;3591715;39;20416;-79
2021/04/02 06:43:05;;;;;;;11.60;5.00;;;;;;;12.06;46.75;100276.50;3588951;39;20172;-77
2021/04/02 06:45:50;;;;;;;9.82;6.05;;;;;;;14.79;41.48;100273.53;3592410;39;20106;-77
2021/04/02 06:48:36;;;;;;;6.75;4.88;;;;;;;16.21;39.26;100268.72;3589303;40;20193;-77
2021/04/02 06:51:23;;;;;;;8.85;5.78;;;;;;;15.83;39.69;100274.56;3592923;40;20075;-79
2021/04/02 06:54:08;;;;;;;8.60;5.25;;;;;;;18.76;35.13;100267.69;3594411;39;20071;-79
2021/04/02 06:56:57;;;;;;;5.70;4.32;;;;;;;21.15;31.27;100264.34;3589824;39;20104;-78
2021/04/02 06:59:42;;;;;;;6.15;4.95;;;;;;;18.50;34.72;100273.00;3592834;39;20440;-78
2021/04/02 07:02:28;;;;;;;6.32;5.20;;;;;;;16.52;38.01;100282.72;3593059;40;20155;-79
2021/04/02 07:05:16;;;;;;;6.78;5.22;;;;;;;15.49;39.15;100280.94;3592496;39;20078;-79
2021/04/02 07:08:04;;;;;;;6.97;4.88;;;;;;;14.62;40.88;100287.63;3593652;40;20084;-79
2021/04/02 07:10:50;;;;;;;9.70;5.72;;;;;;;14.24;41.32;100295.78;3589497;39;20195;-79
2021/04/02 07:13:45;;;;;;;9.40;5.03;;;;;;;14.53;40.14;100293.38;3602597;40;20075;-80
2021/04/02 07:16:31;;;;;;;6.53;4.93;;;;;;;14.20;40.43;100296.03;3592714;39;20174;-78
2021/04/02 07:19:17;;;;;;;6.30;4.95;;;;;;;14.55;39.37;100295.00;3590401;39;20075;-80
2021/04/02 07:22:04;;;;;;;6.63;5.10;;;;;;;14.25;39.74;100294.84;3589286;39;20292;-78
2021/04/02 07:24:50;;;;;;;7.15;5.43;;;;;;;14.39;39.50;100295.91;3588307;39;20419;-78
2021/04/02 07:27:35;;;;;;;6.57;5.35;;;;;;;14.71;38.74;100297.69;3590310;40;20072;-77
2021/04/02 07:30:23;;;;;;;10.77;6.20;;;;;;;18.76;33.13;100288.94;3589677;39;20087;-77
2021/04/02 07:33:10;;;;;;;7.03;4.70;;;;;;;20.91;29.09;100277.84;3591910;39;20087;-78
2021/04/02 07:35:56;;;;;;;11.15;6.43;;;;;;;18.93;32.13;100288.56;3592264;39;20189;-77
2021/04/02 07:38:47;;;;;;;10.57;5.60;;;;;;;17.10;34.92;100301.09;3594084;40;20075;-77
2021/04/02 07:41:37;;;;;;;9.20;5.80;;;;;;;18.11;33.73;100295.22;3593420;40;20134;-71
2021/04/02 07:44:21;;;;;;;7.30;4.93;;;;;;;18.51;32.60;100303.91;3592456;39;20080;-73
2021/04/02 07:47:09;;;;;;;5.93;5.07;;;;;;;19.94;30.21;100297.88;3591483;39;20099;-71
2021/04/02 07:49:58;;;;;;;8.05;5.18;;;;;;;21.40;28.37;100279.19;3588162;39;20141;-70
2021/04/02 07:52:51;;;;;;;7.70;5.30;;;;;;;21.75;27.84;100284.25;3592430;40;20170;-69
2021/04/02 07:55:37;;;;;;;7.45;5.45;;;;;;;23.72;25.85;100276.53;3590472;39;20145;-70
2021/04/02 07:58:24;;;;;;;6.15;4.95;;;;;;;27.80;20.93;100270.88;3589755;39;20071;-72
2021/04/02 08:01:09;;;;;;;9.02;4.90;;;;;;;28.54;19.73;100263.53;3591419;39;20366;-70
2021/04/02 08:03:54;;;;;;;9.85;5.70;;;;;;;24.30;24.73;100286.31;3588069;39;20166;-71
2021/04/02 08:06:40;;;;;;;8.75;6.00;;;;;;;23.52;25.66;100285.50;3593609;39;20184;-72
2021/04/02 08:09:25;;;;;;;10.77;8.40;;;;;;;22.31;26.76;100297.28;3593789;40;20300;-71
2021/04/02 08:12:11;;;;;;;11.00;6.95;;;;;;;20.52;28.45;100288.06;3593207;39;20188;-70
2021/04/02 08:14:58;;;;;;;8.63;6.90;;;;;;;20.01;29.48;100295.59;3592717;39;20436;-71
2021/04/02 08:17:44;;;;;;;8.60;7.05;;;;;;;25.25;22.98;100271.75;3592180;40;20075;-76
2021/04/02 08:20:29;;;;;;;10.45;7.20;;;;;;;26.12;21.94;100271.81;3590175;39;20380;-77
2021/04/02 08:23:14;;;;;;;8.40;7.40;;;;;;;30.22;17.75;100260.03;3585410;39;20083;-77
2021/04/02 08:25:59;;;;;;;8.85;6.72;;;;;;;31.78;16.25;100263.13;3591478;39;20169;-76
2021/04/02 08:28:44;;;;;;;7.88;7.03;;;;;;;25.78;21.49;100264.50;3589542;40;20410;-78
2021/04/02 08:31:30;;;;;;;8.07;6.63;;;;;;;27.07;20.25;100256.47;3592245;40;20079;-76
2021/04/02 08:34:19;;;;;;;8.40;6.15;;;;;;;30.98;16.34;100244.38;3588459;39;20389;-76
2021/04/02 08:37:06;;;;;;;7.55;6.75;;;;;;;31.01;16.73;100238.56;3590958;40;20080;-77
2021/04/02 08:39:52;;;;;;;9.57;6.25;;;;;;;31.76;15.58;100238.94;3585400;39;20088;-76
2021/04/02 08:42:37;;;;;;;6.90;6.13;;;;;;;31.23;16.34;100238.44;3586839;40;20436;-76
2021/04/02 08:45:22;;;;;;;9.90;6.68;;;;;;;29.90;17.30;100244.94;3592244;39;20173;-76
2021/04/02 08:48:08;;;;;;;11.07;7.78;;;;;;;27.92;18.82;100252.53;3590821;39;20182;-77
2021/04/02 08:50:53;;;;;;;7.82;6.30;;;;;;;30.09;16.85;100241.72;3589910;39;20188;-78
2021/04/02 08:53:42;;;;;;;6.88;6.03;;;;;;;32.26;15.12;100244.28;3589596;40;20217;-77
2021/04/02 08:56:29;;;;;;;10.70;8.55;;;;;;;32.48;15.13;100243.16;3592127;40;20079;-77
2021/04/02 08:59:14;;;;;;;8.45;7.65;;;;;;;27.09;19.40;100252.63;3591526;39;20204;-77
2021/04/02 09:02:00;;;;;;;13.77;8.73;;;;;;;28.30;18.08;100250.09;3590399;39;20159;-76
2021/04/02 09:04:47;;;;;;;9.20;8.38;;;;;;;30.08;16.58;100237.34;3593231;39;20384;-77
2021/04/02 09:07:36;;;;;;;9.55;8.75;;;;;;;29.74;16.58;100230.53;3592384;40;20099;-77
2021/04/02 09:10:22;;;;;;;11.63;10.38;;;;;;;26.81;19.04;100243.94;3590017;39;20091;-76
2021/04/02 09:13:07;;;;;;;16.10;11.23;;;;;;;23.42;22.22;100257.94;3589671;39;20075;-77
2021/04/02 09:15:52;;;;;;;13.40;10.30;;;;;;;21.96;24.14;100245.06;3589480;39;20075;-76
2021/04/02 09:18:49;;;;;;;11.68;10.35;;;;;;;25.30;20.47;100231.88;3588636;40;20127;-76
2021/04/02 09:21:34;;;;;;;10.23;9.20;;;;;;;28.55;17.28;100230.16;3590586;39;20084;-75
2021/04/02 09:24:20;;;;;;;8.82;8.02;;;;;;;31.64;14.71;100207.09;3591584;40;20094;-76
2021/04/02 09:27:11;;;;;;;8.75;7.03;;;;;;;28.56;17.11;100218.34;3590461;39;20208;-76
2021/04/02 09:29:56;;;;;;;8.57;7.75;;;;;;;24.07;20.68;100242.94;3586707;39;20147;-76
2021/04/02 09:32:41;;;;;;;6.80;6.15;;;;;;;27.34;17.79;100232.81;3594359;39;20159;-76
2021/04/02 09:35:28;;;;;;;6.95;6.32;;;;;;;30.11;15.20;100215.34;3592427;39;20230;-77
2021/04/02 09:38:13;;;;;;;7.00;5.78;;;;;;;28.23;16.87;100228.38;3589022;40;20080;-75
2021/04/02 09:40:59;;;;;;;7.93;5.70;;;;;;;26.84;18.14;100230.16;3590843;39;21032;-76
2021/04/02 09:43:46;;;;;;;5.43;4.75;;;;;;;28.35;16.68;100218.09;3593624;39;20075;-76
2021/04/02 09:46:33;;;;;;;9.20;5.00;;;;;;;28.81;16.24;100211.78;3589726;39;20075;-76
2021/04/02 09:49:20;;;;;;;10.05;4.70;;;;;;;26.11;18.37;100213.72;3592141;39;20155;-77
2021/04/02 09:52:07;;;;;;;6.15;3.83;;;;;;;23.73;20.64;100213.13;3588622;39;20420;-78
2021/04/02 09:54:52;;;;;;;5.65;3.95;;;;;;;22.72;21.82;100209.00;3588180;40;20103;-77
2021/04/02 09:57:38;;;;;;;5.13;4.00;;;;;;;22.04;22.82;100199.88;3589791;40;20152;-76
2021/04/02 10:00:24;;;;;;;6.13;4.18;;;;;;;22.39;23.11;100204.81;3590151;39;20205;-76
2021/04/02 10:03:13;;;;;;;3.88;3.47;;;;;;;21.09;23.91;100206.22;3592417;39;20169;-76
2021/04/02 10:05:57;;;;;;;5.90;4.38;;;;;;;19.51;25.44;100215.16;3591048;39;20340;-77
2021/04/02 10:08:43;;;;;;;4.00;3.58;;;;;;;18.59;26.58;100213.97;3594860;40;20131;-76
2021/04/02 10:11:28;;;;;;;5.85;3.90;;;;;;;18.04;27.04;100213.50;3595375;40;20329;-77
2021/04/02 10:14:14;;;;;;;4.18;3.58;;;;;;;17.64;27.63;100205.63;3589707;39;20083;-75
2021/04/02 10:16:59;;;;;;;5.75;4.53;;;;;;;17.66;27.28;100198.41;3590875;39;20103;-75
2021/04/02 10:19:44;;;;;;;3.63;3.17;;;;;;;17.26;27.48;100195.81;3588238;39;20094;-78
2021/04/02 10:22:29;;;;;;;5.85;3.50;;;;;;;16.60;28.44;100193.94;3586327;39;20180;-77
2021/04/02 10:25:14;;;;;;;3.88;3.30;;;;;;;16.17;29.56;100193.16;3587398;40;20181;-77
2021/04/02 10:27:59;;;;;;;4.30;3.50;;;;;;;15.93;29.43;100187.59;3589880;40;20116;-77
2021/04/02 10:30:44;;;;;;;9.18;5.30;;;;;;;15.95;29.79;100191.00;3589545;39;20086;-78
2021/04/02 10:33:29;;;;;;;7.47;5.15;;;;;;;16.01;29.46;100182.66;3587302;39;20079;-77
2021/04/02 10:36:14;;;;;;;5.65;3.40;;;;;;;15.63;29.87;100186.81;3590149;39;20161;-77
2021/04/02 10:38:59;;;;;;;6.32;3.55;;;;;;;15.15;30.74;100183.44;3591080;39;20507;-77
2021/04/02 10:41:45;;;;;;;4.57;3.22;;;;;;;14.88;30.81;100177.97;3594077;39;20189;-78
2021/04/02 10:44:30;;;;;;;5.05;2.83;;;;;;;14.57;31.91;100168.28;3592636;40;20269;-78
2021/04/02 10:47:15;;;;;;;4.57;2.90;;;;;;;14.47;32.30;100172.41;3592421;39;20169;-76
2021/04/02 10:50:00;;;;;;;13.35;6.00;;;;;;;14.35;32.16;100179.16;3588037;39;20111;-77
2021/04/02 10:52:44;;;;;;;9.40;4.38;;;;;;;14.18;32.42;100177.47;3591290;39;20478;-76
2021/04/02 10:55:29;;;;;;;5.68;3.80;;;;;;;14.03;32.67;100173.84;3592155;40;20169;-75
2021/04/02 10:58:15;;;;;;;5.70;3.20;;;;;;;14.04;32.19;100172.94;3590852;40;20082;-76
2021/04/02 11:01:00;;;;;;;13.38;6.80;;;;;;;13.93;32.65;100162.09;3591559;39;20204;-76
2021/04/02 11:03:45;;;;;;;7.15;4.40;;;;;;;13.79;32.86;100166.41;3591270;39;20067;-76
2021/04/02 11:06:30;;;;;;;6.72;3.75;;;;;;;13.36;33.00;100173.91;3591140;39;20368;-76
2021/04/02 11:09:15;;;;;;;8.35;4.13;;;;;;;13.12;33.13;100163.66;3590932;39;20242;-79
2021/04/02 11:12:00;;;;;;;7.85;4.00;;;;;;;13.06;33.64;100163.09;3590576;39;20075;-71
2021/04/02 11:14:46;;;;;;;7.57;4.50;;;;;;;13.18;33.99;100156.41;3591783;40;20217;-71
2021/04/02 11:17:33;;;;;;;6.30;3.63;;;;;;;13.56;33.52;100150.03;3590694;39;20083;-74
2021/04/02 11:20:20;;;;;;;7.35;4.60;;;;;;;13.81;33.52;100157.50;3590802;39;20176;-73
2021/04/02 11:23:05;;;;;;;8.25;4.13;;;;;;;13.70;33.73;100144.88;3591549;39;20165;-73
2021/04/02 11:25:51;;;;;;;5.75;3.90;;;;;;;13.63;33.82;100143.50;3594211;39;20320;-75
2021/04/02 11:28:36;;;;;;;8.75;4.13;;;;;;;13.76;33.26;100140.25;3593067;40;20074;-76
2021/04/02 11:31:22;;;;;;;6.55;4.60;;;;;;;13.86;33.42;100144.91;3591477;40;20245;-73
2021/04/02 11:34:07;;;;;;;5.57;3.75;;;;;;;13.77;33.46;100148.06;3593083;40;20087;-73
2021/04/02 11:36:52;;;;;;;6.47;4.18;;;;;;;13.76;33.48;100148.13;3589526;39;20415;-73
2021/04/02 11:39:37;;;;;;;5.82;3.40;;;;;;;13.68;33.42;100152.00;3591521;39;20177;-72
2021/04/02 11:42:21;;;;;;;5.15;4.28;;;;;;;13.64;33.88;100145.19;3592560;40;20520;-71
2021/04/02 11:45:08;;;;;;;5.22;4.03;;;;;;;13.74;33.79;100140.28;3591699;39;20079;-74
2021/04/02 11:47:55;;;;;;;6.65;4.07;;;;;;;13.92;33.54;100133.19;3589835;39;20501;-73
2021/04/02 11:50:40;;;;;;;5.55;4.03;;;;;;;13.69;33.56;100127.38;3590064;39;20075;-72
2021/04/02 11:53:25;;;;;;;5.60;3.80;;;;;;;13.63;34.07;100132.13;3592823;40;20075;-72
2021/04/02 11:56:10;;;;;;;7.13;3.83;;;;;;;13.51;34.35;100117.78;3592085;39;20087;-71
2021/04/02 11:58:54;;;;;;;4.82;4.00;;;;;;;13.35;34.85;100122.19;3591676;39;20075;-75
2021/04/02 12:01:40;;;;;;;7.70;4.40;;;;;;;13.39;35.04;100121.09;3591108;39;20071;-80
2021/04/02 12:04:28;;;;;;;6.20;4.22;;;;;;;13.43;34.73;100114.72;3592396;39;20225;-80
2021/04/02 12:07:14;;;;;;;8.20;4.45;;;;;;;13.38;34.75;100116.75;3592631;40;20074;-78
2021/04/02 12:09:59;;;;;;;4.25;3.30;;;;;;;13.30;34.84;100116.28;3589597;39;20075;-71
2021/04/02 12:12:44;;;;;;;4.63;3.47;;;;;;;13.23;34.88;100112.28;3590648;39;20173;-71
2021/04/02 12:15:30;;;;;;;4.88;3.60;;;;;;;13.28;34.91;100105.84;3590894;39;20083;-73
2021/04/02 12:18:15;;;;;;;4.55;3.50;;;;;;;13.31;34.42;100113.56;3593098;40;20087;-75
2021/04/02 12:21:01;;;;;;;5.20;3.40;;;;;;;13.36;34.40;100108.09;3591577;39;20173;-73
2021/04/02 12:23:47;;;;;;;5.30;3.83;;;;;;;13.31;33.94;100099.56;3591319;39;20083;-73
2021/04/02 12:26:32;;;;;;;5.90;4.00;;;;;;;13.23;33.64;100083.31;3590471;39;20156;-73
2021/04/02 12:29:17;;;;;;;7.45;4.53;;;;;;;13.24;33.78;100096.41;3592239;39;20177;-72
2021/04/02 12:32:02;;;;;;;5.68;3.70;;;;;;;13.19;33.62;100082.63;3592299;39;20084;-73
2021/04/02 12:34:47;;;;;;;4.47;3.78;;;;;;;13.16;33.94;100089.81;3592167;39;20079;-76
2021/04/02 12:37:33;;;;;;;6.60;3.50;;;;;;;13.13;34.06;100083.78;3592496;40;20071;-77
2021/04/02 12:40:20;;;;;;;8.35;4.63;;;;;;;13.09;34.10;100079.56;3591692;39;20499;-77
2021/04/02 12:43:06;;;;;;;6.45;4.22;;;;;;;13.19;34.03;100077.38;3592757;39;20165;-81
2021/04/02 12:45:52;;;;;;;6.15;4.03;;;;;;;13.20;34.15;100073.81;3592494;39;20071;-80
2021/04/02 12:48:39;;;;;;;8.07;4.60;;;;;;;13.27;33.91;100072.53;3594710;39;20241;-78
2021/04/02 12:51:23;;;;;;;7.40;4.90;;;;;;;13.40;34.30;100067.50;3593432;40;20147;-78
2021/04/02 12:54:10;;;;;;;5.93;4.25;;;;;;;13.50;33.72;100052.88;3592690;40;20169;-77
2021/04/02 12:56:55;;;;;;;7.10;5.07;;;;;;;13.40;34.12;100057.81;3593697;40;20173;-78
2021/04/02 12:59:41;;;;;;;8.35;5.15;;;;;;;13.19;33.93;100055.47;3591046;39;20076;-78